sensor_id;sensor_type;location;lat;lon;timestamp;P1;durP1;ratioP1;P2;durP2;ratioP2
5054;SDS011;13829;48.990;8.346;2023-03-21T00:00:02;4.87;;;3.97;;
5054;SDS011;13829;48.990;8.346;2023-03-21T00:02:32;5.10;;;3.93;;
5054;SDS011;13829;48.990;8.346;2023-03-21T00:04:59;4.87;;;4.20;;
5054;SDS011;13829;48.990;8.346;2023-03-21T00:07:26;4.97;;;3.90;;
5054;SDS011;13829;48.990;8.346;2023-03-21T00:09:53;4.53;;;4.00;;
5054;SDS011;13829;48.990;8.346;2023-03-21T00:12:20;6.20;;;4.07;;
5054;SDS011;13829;48.990;8.346;2023-03-21T00:14:47;4.60;;;4.20;;
5054;SDS011;13829;48.990;8.346;2023-03-21T00:17:14;5.47;;;4.00;;
5054;SDS011;13829;48.990;8.346;2023-03-21T00:19:43;4.67;;;3.63;;
5054;SDS011;13829;48.990;8.346;2023-03-21T00:22:10;7.67;;;4.77;;
5054;SDS011;13829;48.990;8.346;2023-03-21T00:24:37;5.70;;;4.83;;
5054;SDS011;13829;48.990;8.346;2023-03-21T00:27:04;7.50;;;4.30;;
5054;SDS011;13829;48.990;8.346;2023-03-21T00:29:32;5.83;;;4.23;;
5054;SDS011;13829;48.990;8.346;2023-03-21T00:31:59;6.40;;;4.00;;
5054;SDS011;13829;48.990;8.346;2023-03-21T00:34:26;5.63;;;4.57;;
5054;SDS011;13829;48.990;8.346;2023-03-21T00:36:54;5.17;;;4.13;;
5054;SDS011;13829;48.990;8.346;2023-03-21T00:39:21;6.40;;;4.80;;
5054;SDS011;13829;48.990;8.346;2023-03-21T00:41:48;6.43;;;4.13;;
5054;SDS011;13829;48.990;8.346;2023-03-21T00:44:15;5.23;;;3.80;;
5054;SDS011;13829;48.990;8.346;2023-03-21T00:46:42;5.87;;;4.20;;
5054;SDS011;13829;48.990;8.346;2023-03-21T00:49:09;6.00;;;4.50;;
5054;SDS011;13829;48.990;8.346;2023-03-21T00:51:36;5.27;;;4.70;;
5054;SDS011;13829;48.990;8.346;2023-03-21T00:54:04;4.90;;;4.33;;
5054;SDS011;13829;48.990;8.346;2023-03-21T00:56:31;5.10;;;4.30;;
5054;SDS011;13829;48.990;8.346;2023-03-21T00:58:58;6.50;;;4.60;;
5054;SDS011;13829;48.990;8.346;2023-03-21T01:01:25;6.90;;;4.70;;
5054;SDS011;13829;48.990;8.346;2023-03-21T01:03:55;5.13;;;4.30;;
5054;SDS011;13829;48.990;8.346;2023-03-21T01:06:27;5.93;;;4.63;;
5054;SDS011;13829;48.990;8.346;2023-03-21T01:08:54;5.67;;;4.27;;
5054;SDS011;13829;48.990;8.346;2023-03-21T01:11:24;4.50;;;4.10;;
5054;SDS011;13829;48.990;8.346;2023-03-21T01:13:53;6.47;;;4.93;;
5054;SDS011;13829;48.990;8.346;2023-03-21T01:16:21;5.57;;;3.80;;
5054;SDS011;13829;48.990;8.346;2023-03-21T01:18:48;5.63;;;4.83;;
5054;SDS011;13829;48.990;8.346;2023-03-21T01:21:15;5.60;;;4.97;;
5054;SDS011;13829;48.990;8.346;2023-03-21T01:23:43;6.57;;;4.77;;
5054;SDS011;13829;48.990;8.346;2023-03-21T01:26:11;8.67;;;4.67;;
5054;SDS011;13829;48.990;8.346;2023-03-21T01:28:41;5.33;;;4.47;;
5054;SDS011;13829;48.990;8.346;2023-03-21T01:31:10;5.40;;;4.43;;
5054;SDS011;13829;48.990;8.346;2023-03-21T01:33:39;5.63;;;4.57;;
5054;SDS011;13829;48.990;8.346;2023-03-21T01:36:07;6.30;;;4.47;;
5054;SDS011;13829;48.990;8.346;2023-03-21T01:38:39;5.60;;;4.40;;
5054;SDS011;13829;48.990;8.346;2023-03-21T01:41:06;5.97;;;4.10;;
5054;SDS011;13829;48.990;8.346;2023-03-21T01:43:42;6.27;;;4.10;;
5054;SDS011;13829;48.990;8.346;2023-03-21T01:46:19;5.03;;;4.13;;
5054;SDS011;13829;48.990;8.346;2023-03-21T01:49:02;5.50;;;4.20;;
5054;SDS011;13829;48.990;8.346;2023-03-21T01:51:37;6.27;;;4.43;;
5054;SDS011;13829;48.990;8.346;2023-03-21T01:54:09;5.97;;;4.23;;
5054;SDS011;13829;48.990;8.346;2023-03-21T01:56:44;8.40;;;4.57;;
5054;SDS011;13829;48.990;8.346;2023-03-21T01:59:15;7.03;;;3.97;;
5054;SDS011;13829;48.990;8.346;2023-03-21T02:01:46;4.87;;;4.30;;
5054;SDS011;13829;48.990;8.346;2023-03-21T02:04:16;4.83;;;4.27;;
5054;SDS011;13829;48.990;8.346;2023-03-21T02:06:53;8.30;;;4.77;;
5054;SDS011;13829;48.990;8.346;2023-03-21T02:09:26;6.37;;;4.30;;
5054;SDS011;13829;48.990;8.346;2023-03-21T02:11:58;5.27;;;4.77;;
5054;SDS011;13829;48.990;8.346;2023-03-21T02:14:30;10.87;;;4.70;;
5054;SDS011;13829;48.990;8.346;2023-03-21T02:17:03;7.00;;;4.83;;
5054;SDS011;13829;48.990;8.346;2023-03-21T02:22:59;5.93;;;4.30;;
5054;SDS011;13829;48.990;8.346;2023-03-21T02:25:55;4.93;;;4.30;;
5054;SDS011;13829;48.990;8.346;2023-03-21T02:29:24;5.40;;;4.70;;
5054;SDS011;13829;48.990;8.346;2023-03-21T02:32:18;7.63;;;4.60;;
5054;SDS011;13829;48.990;8.346;2023-03-21T02:35:04;6.70;;;4.37;;
5054;SDS011;13829;48.990;8.346;2023-03-21T02:37:56;5.90;;;3.80;;
5054;SDS011;13829;48.990;8.346;2023-03-21T02:40:30;5.13;;;4.63;;
5054;SDS011;13829;48.990;8.346;2023-03-21T02:43:04;5.37;;;4.10;;
5054;SDS011;13829;48.990;8.346;2023-03-21T02:45:43;4.40;;;3.50;;
5054;SDS011;13829;48.990;8.346;2023-03-21T02:48:18;4.53;;;3.53;;
5054;SDS011;13829;48.990;8.346;2023-03-21T02:50:55;7.03;;;5.03;;
5054;SDS011;13829;48.990;8.346;2023-03-21T02:53:29;7.17;;;3.97;;
5054;SDS011;13829;48.990;8.346;2023-03-21T02:56:02;7.93;;;4.63;;
5054;SDS011;13829;48.990;8.346;2023-03-21T02:58:34;5.20;;;4.10;;
5054;SDS011;13829;48.990;8.346;2023-03-21T03:01:04;5.13;;;4.37;;
5054;SDS011;13829;48.990;8.346;2023-03-21T03:03:33;6.33;;;4.60;;
5054;SDS011;13829;48.990;8.346;2023-03-21T03:06:03;6.67;;;4.13;;
5054;SDS011;13829;48.990;8.346;2023-03-21T03:08:45;4.50;;;3.70;;
5054;SDS011;13829;48.990;8.346;2023-03-21T03:11:33;6.73;;;4.00;;
5054;SDS011;13829;48.990;8.346;2023-03-21T03:14:09;6.23;;;4.30;;
5054;SDS011;13829;48.990;8.346;2023-03-21T03:17:09;7.93;;;5.30;;
5054;SDS011;13829;48.990;8.346;2023-03-21T03:19:53;6.13;;;4.83;;
5054;SDS011;13829;48.990;8.346;2023-03-21T03:22:47;7.20;;;5.73;;
5054;SDS011;13829;48.990;8.346;2023-03-21T03:25:27;5.17;;;4.40;;
5054;SDS011;13829;48.990;8.346;2023-03-21T03:28:00;5.50;;;3.93;;
5054;SDS011;13829;48.990;8.346;2023-03-21T03:30:33;7.07;;;4.37;;
5054;SDS011;13829;48.990;8.346;2023-03-21T03:33:03;6.17;;;4.17;;
5054;SDS011;13829;48.990;8.346;2023-03-21T03:35:35;4.73;;;3.60;;
5054;SDS011;13829;48.990;8.346;2023-03-21T03:38:04;6.00;;;4.00;;
5054;SDS011;13829;48.990;8.346;2023-03-21T03:40:35;3.90;;;3.50;;
5054;SDS011;13829;48.990;8.346;2023-03-21T03:43:08;4.20;;;3.57;;
5054;SDS011;13829;48.990;8.346;2023-03-21T03:45:42;6.37;;;4.07;;
5054;SDS011;13829;48.990;8.346;2023-03-21T03:48:15;7.10;;;4.20;;
5054;SDS011;13829;48.990;8.346;2023-03-21T03:50:52;5.93;;;3.80;;
5054;SDS011;13829;48.990;8.346;2023-03-21T03:53:27;5.00;;;3.90;;
5054;SDS011;13829;48.990;8.346;2023-03-21T03:56:03;5.03;;;3.73;;
5054;SDS011;13829;48.990;8.346;2023-03-21T03:58:35;4.17;;;3.77;;
5054;SDS011;13829;48.990;8.346;2023-03-21T04:01:04;4.67;;;3.90;;
5054;SDS011;13829;48.990;8.346;2023-03-21T04:03:32;5.03;;;3.60;;
5054;SDS011;13829;48.990;8.346;2023-03-21T04:06:02;4.43;;;3.70;;
5054;SDS011;13829;48.990;8.346;2023-03-21T04:08:30;6.53;;;4.17;;
5054;SDS011;13829;48.990;8.346;2023-03-21T04:10:57;4.47;;;4.00;;
5054;SDS011;13829;48.990;8.346;2023-03-21T04:13:25;5.33;;;3.77;;
5054;SDS011;13829;48.990;8.346;2023-03-21T04:15:52;6.27;;;4.00;;
5054;SDS011;13829;48.990;8.346;2023-03-21T04:18:20;5.37;;;4.00;;
5054;SDS011;13829;48.990;8.346;2023-03-21T04:20:48;7.53;;;4.20;;
5054;SDS011;13829;48.990;8.346;2023-03-21T04:23:15;6.03;;;4.10;;
5054;SDS011;13829;48.990;8.346;2023-03-21T04:25:44;7.30;;;4.60;;
5054;SDS011;13829;48.990;8.346;2023-03-21T04:28:11;5.33;;;4.00;;
5054;SDS011;13829;48.990;8.346;2023-03-21T04:30:39;7.20;;;4.10;;
5054;SDS011;13829;48.990;8.346;2023-03-21T04:33:06;4.97;;;4.10;;
5054;SDS011;13829;48.990;8.346;2023-03-21T04:35:33;9.13;;;4.33;;
5054;SDS011;13829;48.990;8.346;2023-03-21T04:38:00;7.70;;;4.23;;
5054;SDS011;13829;48.990;8.346;2023-03-21T04:40:28;4.53;;;4.00;;
5054;SDS011;13829;48.990;8.346;2023-03-21T04:42:54;6.13;;;4.10;;
5054;SDS011;13829;48.990;8.346;2023-03-21T04:45:21;7.37;;;3.80;;
5054;SDS011;13829;48.990;8.346;2023-03-21T04:47:50;7.77;;;4.17;;
5054;SDS011;13829;48.990;8.346;2023-03-21T04:50:17;4.70;;;3.67;;
5054;SDS011;13829;48.990;8.346;2023-03-21T04:52:44;5.33;;;3.90;;
5054;SDS011;13829;48.990;8.346;2023-03-21T04:55:10;6.10;;;4.10;;
5054;SDS011;13829;48.990;8.346;2023-03-21T04:57:38;5.07;;;4.13;;
5054;SDS011;13829;48.990;8.346;2023-03-21T05:00:06;4.50;;;3.90;;
5054;SDS011;13829;48.990;8.346;2023-03-21T05:02:35;6.60;;;4.00;;
5054;SDS011;13829;48.990;8.346;2023-03-21T05:05:04;6.37;;;3.97;;
5054;SDS011;13829;48.990;8.346;2023-03-21T05:07:35;4.90;;;4.07;;
5054;SDS011;13829;48.990;8.346;2023-03-21T05:10:03;4.53;;;3.73;;
5054;SDS011;13829;48.990;8.346;2023-03-21T05:12:32;6.63;;;3.80;;
5054;SDS011;13829;48.990;8.346;2023-03-21T05:14:59;4.53;;;3.73;;
5054;SDS011;13829;48.990;8.346;2023-03-21T05:17:26;5.10;;;3.70;;
5054;SDS011;13829;48.990;8.346;2023-03-21T05:19:53;7.13;;;4.13;;
5054;SDS011;13829;48.990;8.346;2023-03-21T05:22:22;5.83;;;4.27;;
5054;SDS011;13829;48.990;8.346;2023-03-21T05:24:51;7.63;;;3.90;;
5054;SDS011;13829;48.990;8.346;2023-03-21T05:27:19;5.07;;;3.87;;
5054;SDS011;13829;48.990;8.346;2023-03-21T05:30:00;5.17;;;4.17;;
5054;SDS011;13829;48.990;8.346;2023-03-21T05:32:30;5.03;;;3.97;;
5054;SDS011;13829;48.990;8.346;2023-03-21T05:34:57;6.07;;;3.77;;
5054;SDS011;13829;48.990;8.346;2023-03-21T05:37:26;8.27;;;4.03;;
5054;SDS011;13829;48.990;8.346;2023-03-21T05:39:54;5.10;;;4.03;;
5054;SDS011;13829;48.990;8.346;2023-03-21T05:42:21;5.33;;;3.70;;
5054;SDS011;13829;48.990;8.346;2023-03-21T05:44:49;4.23;;;3.57;;
5054;SDS011;13829;48.990;8.346;2023-03-21T05:47:17;4.90;;;3.40;;
5054;SDS011;13829;48.990;8.346;2023-03-21T05:49:44;8.53;;;4.00;;
5054;SDS011;13829;48.990;8.346;2023-03-21T05:52:12;6.70;;;3.47;;
5054;SDS011;13829;48.990;8.346;2023-03-21T05:54:40;5.40;;;3.80;;
5054;SDS011;13829;48.990;8.346;2023-03-21T05:57:07;4.73;;;3.90;;
5054;SDS011;13829;48.990;8.346;2023-03-21T05:59:35;7.17;;;4.27;;
5054;SDS011;13829;48.990;8.346;2023-03-21T06:02:02;5.73;;;4.87;;
5054;SDS011;13829;48.990;8.346;2023-03-21T06:04:29;7.90;;;4.27;;
5054;SDS011;13829;48.990;8.346;2023-03-21T06:06:56;10.13;;;4.50;;
5054;SDS011;13829;48.990;8.346;2023-03-21T06:09:23;5.37;;;4.37;;
5054;SDS011;13829;48.990;8.346;2023-03-21T06:11:53;5.00;;;3.90;;
5054;SDS011;13829;48.990;8.346;2023-03-21T06:14:22;4.63;;;4.10;;
5054;SDS011;13829;48.990;8.346;2023-03-21T06:16:50;4.37;;;3.53;;
5054;SDS011;13829;48.990;8.346;2023-03-21T06:19:18;5.17;;;3.93;;
5054;SDS011;13829;48.990;8.346;2023-03-21T06:21:45;5.63;;;3.97;;
5054;SDS011;13829;48.990;8.346;2023-03-21T06:24:13;4.63;;;4.07;;
5054;SDS011;13829;48.990;8.346;2023-03-21T06:26:41;6.43;;;4.50;;
5054;SDS011;13829;48.990;8.346;2023-03-21T06:29:10;4.37;;;3.97;;
5054;SDS011;13829;48.990;8.346;2023-03-21T06:31:37;6.13;;;4.13;;
5054;SDS011;13829;48.990;8.346;2023-03-21T06:34:03;6.70;;;3.80;;
5054;SDS011;13829;48.990;8.346;2023-03-21T06:36:31;5.20;;;3.80;;
5054;SDS011;13829;48.990;8.346;2023-03-21T06:38:58;5.03;;;3.63;;
5054;SDS011;13829;48.990;8.346;2023-03-21T06:41:25;4.83;;;3.43;;
5054;SDS011;13829;48.990;8.346;2023-03-21T06:43:52;7.20;;;4.13;;
5054;SDS011;13829;48.990;8.346;2023-03-21T06:46:20;4.80;;;3.80;;
5054;SDS011;13829;48.990;8.346;2023-03-21T06:48:47;6.30;;;4.20;;
5054;SDS011;13829;48.990;8.346;2023-03-21T06:51:14;6.93;;;4.50;;
5054;SDS011;13829;48.990;8.346;2023-03-21T06:53:42;6.80;;;3.53;;
5054;SDS011;13829;48.990;8.346;2023-03-21T06:56:09;3.83;;;3.53;;
5054;SDS011;13829;48.990;8.346;2023-03-21T06:58:37;5.17;;;3.90;;
5054;SDS011;13829;48.990;8.346;2023-03-21T07:01:05;4.20;;;3.87;;
5054;SDS011;13829;48.990;8.346;2023-03-21T07:03:34;4.27;;;3.87;;
5054;SDS011;13829;48.990;8.346;2023-03-21T07:06:05;6.73;;;4.53;;
5054;SDS011;13829;48.990;8.346;2023-03-21T07:08:35;5.67;;;3.90;;
5054;SDS011;13829;48.990;8.346;2023-03-21T07:11:03;4.30;;;3.90;;
5054;SDS011;13829;48.990;8.346;2023-03-21T07:13:31;4.77;;;4.10;;
5054;SDS011;13829;48.990;8.346;2023-03-21T07:15:58;6.93;;;3.57;;
5054;SDS011;13829;48.990;8.346;2023-03-21T07:18:25;4.70;;;3.83;;
5054;SDS011;13829;48.990;8.346;2023-03-21T07:20:54;4.03;;;3.43;;
5054;SDS011;13829;48.990;8.346;2023-03-21T07:23:21;5.47;;;3.83;;
5054;SDS011;13829;48.990;8.346;2023-03-21T07:25:51;7.20;;;3.67;;
5054;SDS011;13829;48.990;8.346;2023-03-21T07:28:19;4.70;;;3.70;;
5054;SDS011;13829;48.990;8.346;2023-03-21T07:30:50;6.10;;;4.27;;
5054;SDS011;13829;48.990;8.346;2023-03-21T07:33:19;5.23;;;4.07;;
5054;SDS011;13829;48.990;8.346;2023-03-21T07:35:47;4.63;;;3.80;;
5054;SDS011;13829;48.990;8.346;2023-03-21T07:38:15;3.50;;;3.20;;
5054;SDS011;13829;48.990;8.346;2023-03-21T07:40:43;4.07;;;3.67;;
5054;SDS011;13829;48.990;8.346;2023-03-21T07:43:10;4.20;;;3.50;;
5054;SDS011;13829;48.990;8.346;2023-03-21T07:45:38;5.07;;;3.90;;
5054;SDS011;13829;48.990;8.346;2023-03-21T07:48:06;5.20;;;3.70;;
5054;SDS011;13829;48.990;8.346;2023-03-21T07:50:34;4.33;;;3.23;;
5054;SDS011;13829;48.990;8.346;2023-03-21T07:53:01;5.00;;;3.90;;
5054;SDS011;13829;48.990;8.346;2023-03-21T07:55:29;4.17;;;3.23;;
5054;SDS011;13829;48.990;8.346;2023-03-21T07:57:58;3.70;;;2.97;;
5054;SDS011;13829;48.990;8.346;2023-03-21T08:00:26;3.67;;;3.07;;
5054;SDS011;13829;48.990;8.346;2023-03-21T08:02:54;3.80;;;2.70;;
5054;SDS011;13829;48.990;8.346;2023-03-21T08:05:24;3.77;;;3.27;;
5054;SDS011;13829;48.990;8.346;2023-03-21T08:07:54;5.87;;;3.53;;
5054;SDS011;13829;48.990;8.346;2023-03-21T08:10:22;4.20;;;3.40;;
5054;SDS011;13829;48.990;8.346;2023-03-21T08:12:50;3.17;;;2.87;;
5054;SDS011;13829;48.990;8.346;2023-03-21T08:15:18;3.90;;;3.17;;
5054;SDS011;13829;48.990;8.346;2023-03-21T08:17:45;4.97;;;3.10;;
5054;SDS011;13829;48.990;8.346;2023-03-21T08:20:13;5.30;;;3.90;;
5054;SDS011;13829;48.990;8.346;2023-03-21T08:22:45;3.37;;;3.07;;
5054;SDS011;13829;48.990;8.346;2023-03-21T08:25:14;5.63;;;3.87;;
5054;SDS011;13829;48.990;8.346;2023-03-21T08:27:43;4.73;;;3.60;;
5054;SDS011;13829;48.990;8.346;2023-03-21T08:30:14;4.23;;;3.70;;
5054;SDS011;13829;48.990;8.346;2023-03-21T08:32:44;6.80;;;4.03;;
5054;SDS011;13829;48.990;8.346;2023-03-21T08:35:12;7.80;;;3.93;;
5054;SDS011;13829;48.990;8.346;2023-03-21T08:37:41;4.03;;;3.57;;
5054;SDS011;13829;48.990;8.346;2023-03-21T08:40:09;4.63;;;4.20;;
5054;SDS011;13829;48.990;8.346;2023-03-21T08:42:40;5.87;;;4.23;;
5054;SDS011;13829;48.990;8.346;2023-03-21T08:45:09;4.93;;;4.00;;
5054;SDS011;13829;48.990;8.346;2023-03-21T08:47:38;4.53;;;4.07;;
5054;SDS011;13829;48.990;8.346;2023-03-21T08:50:06;3.67;;;3.27;;
5054;SDS011;13829;48.990;8.346;2023-03-21T08:52:38;4.13;;;3.60;;
5054;SDS011;13829;48.990;8.346;2023-03-21T08:55:05;4.30;;;3.77;;
5054;SDS011;13829;48.990;8.346;2023-03-21T08:57:33;4.40;;;3.27;;
5054;SDS011;13829;48.990;8.346;2023-03-21T09:00:00;5.17;;;3.73;;
5054;SDS011;13829;48.990;8.346;2023-03-21T09:02:33;4.20;;;3.20;;
5054;SDS011;13829;48.990;8.346;2023-03-21T09:05:01;5.53;;;3.03;;
5054;SDS011;13829;48.990;8.346;2023-03-21T09:07:30;5.10;;;3.20;;
5054;SDS011;13829;48.990;8.346;2023-03-21T09:09:58;6.50;;;3.20;;
5054;SDS011;13829;48.990;8.346;2023-03-21T09:12:25;4.63;;;3.07;;
5054;SDS011;13829;48.990;8.346;2023-03-21T09:14:52;4.27;;;3.10;;
5054;SDS011;13829;48.990;8.346;2023-03-21T09:17:19;5.57;;;2.77;;
5054;SDS011;13829;48.990;8.346;2023-03-21T09:19:46;2.93;;;2.10;;
5054;SDS011;13829;48.990;8.346;2023-03-21T09:22:16;3.90;;;2.90;;
5054;SDS011;13829;48.990;8.346;2023-03-21T09:24:47;2.90;;;2.43;;
5054;SDS011;13829;48.990;8.346;2023-03-21T09:27:15;3.07;;;2.60;;
5054;SDS011;13829;48.990;8.346;2023-03-21T09:29:46;3.20;;;2.87;;
5054;SDS011;13829;48.990;8.346;2023-03-21T09:32:14;3.57;;;2.47;;
5054;SDS011;13829;48.990;8.346;2023-03-21T09:34:42;3.83;;;2.90;;
5054;SDS011;13829;48.990;8.346;2023-03-21T09:37:10;3.43;;;2.30;;
5054;SDS011;13829;48.990;8.346;2023-03-21T09:39:39;2.90;;;2.60;;
5054;SDS011;13829;48.990;8.346;2023-03-21T09:42:09;4.40;;;2.80;;
5054;SDS011;13829;48.990;8.346;2023-03-21T09:44:57;4.60;;;2.40;;
5054;SDS011;13829;48.990;8.346;2023-03-21T09:47:37;2.40;;;2.00;;
5054;SDS011;13829;48.990;8.346;2023-03-21T09:50:17;4.50;;;2.70;;
5054;SDS011;13829;48.990;8.346;2023-03-21T09:52:52;3.17;;;2.63;;
5054;SDS011;13829;48.990;8.346;2023-03-21T09:55:25;3.93;;;2.77;;
5054;SDS011;13829;48.990;8.346;2023-03-21T09:57:58;5.07;;;3.00;;
5054;SDS011;13829;48.990;8.346;2023-03-21T10:00:41;4.57;;;3.27;;
5054;SDS011;13829;48.990;8.346;2023-03-21T10:03:21;3.40;;;2.50;;
5054;SDS011;13829;48.990;8.346;2023-03-21T10:05:52;4.30;;;2.57;;
5054;SDS011;13829;48.990;8.346;2023-03-21T10:08:25;3.57;;;3.00;;
5054;SDS011;13829;48.990;8.346;2023-03-21T10:11:00;3.67;;;2.70;;
5054;SDS011;13829;48.990;8.346;2023-03-21T10:13:37;3.10;;;2.77;;
5054;SDS011;13829;48.990;8.346;2023-03-21T10:16:11;5.53;;;4.43;;
5054;SDS011;13829;48.990;8.346;2023-03-21T10:18:44;3.00;;;2.70;;
5054;SDS011;13829;48.990;8.346;2023-03-21T10:21:16;5.37;;;3.20;;
5054;SDS011;13829;48.990;8.346;2023-03-21T10:23:49;4.93;;;3.50;;
5054;SDS011;13829;48.990;8.346;2023-03-21T10:26:20;6.00;;;5.17;;
5054;SDS011;13829;48.990;8.346;2023-03-21T10:28:51;6.30;;;3.53;;
5054;SDS011;13829;48.990;8.346;2023-03-21T10:31:23;7.43;;;4.27;;
5054;SDS011;13829;48.990;8.346;2023-03-21T10:33:55;3.50;;;3.17;;
5054;SDS011;13829;48.990;8.346;2023-03-21T10:36:28;4.87;;;3.27;;
5054;SDS011;13829;48.990;8.346;2023-03-21T10:38:59;5.07;;;3.10;;
5054;SDS011;13829;48.990;8.346;2023-03-21T10:41:31;6.40;;;3.47;;
5054;SDS011;13829;48.990;8.346;2023-03-21T10:44:05;6.03;;;3.83;;
5054;SDS011;13829;48.990;8.346;2023-03-21T10:46:35;5.07;;;3.43;;
5054;SDS011;13829;48.990;8.346;2023-03-21T10:49:03;3.87;;;3.40;;
5054;SDS011;13829;48.990;8.346;2023-03-21T10:51:35;3.77;;;3.20;;
5054;SDS011;13829;48.990;8.346;2023-03-21T10:54:05;3.90;;;3.60;;
5054;SDS011;13829;48.990;8.346;2023-03-21T10:56:43;5.17;;;3.30;;
5054;SDS011;13829;48.990;8.346;2023-03-21T10:59:21;3.60;;;3.20;;
5054;SDS011;13829;48.990;8.346;2023-03-21T11:01:49;3.57;;;3.27;;
5054;SDS011;13829;48.990;8.346;2023-03-21T11:04:21;5.40;;;3.50;;
5054;SDS011;13829;48.990;8.346;2023-03-21T11:06:52;4.00;;;3.37;;
5054;SDS011;13829;48.990;8.346;2023-03-21T11:09:22;4.03;;;3.30;;
5054;SDS011;13829;48.990;8.346;2023-03-21T11:11:54;5.87;;;3.17;;
5054;SDS011;13829;48.990;8.346;2023-03-21T11:14:35;4.10;;;3.13;;
5054;SDS011;13829;48.990;8.346;2023-03-21T11:17:21;3.63;;;3.33;;
5054;SDS011;13829;48.990;8.346;2023-03-21T11:19:54;4.13;;;3.57;;
5054;SDS011;13829;48.990;8.346;2023-03-21T11:22:25;7.03;;;3.63;;
5054;SDS011;13829;48.990;8.346;2023-03-21T11:25:03;4.73;;;3.63;;
5054;SDS011;13829;48.990;8.346;2023-03-21T11:27:47;4.60;;;3.70;;
5054;SDS011;13829;48.990;8.346;2023-03-21T11:30:18;4.57;;;3.90;;
5054;SDS011;13829;48.990;8.346;2023-03-21T11:32:50;4.53;;;3.53;;
5054;SDS011;13829;48.990;8.346;2023-03-21T11:35:22;4.30;;;3.53;;
5054;SDS011;13829;48.990;8.346;2023-03-21T11:37:53;5.67;;;3.90;;
5054;SDS011;13829;48.990;8.346;2023-03-21T11:40:22;4.23;;;3.83;;
5054;SDS011;13829;48.990;8.346;2023-03-21T11:42:54;5.77;;;4.13;;
5054;SDS011;13829;48.990;8.346;2023-03-21T11:45:23;5.27;;;4.77;;
5054;SDS011;13829;48.990;8.346;2023-03-21T11:47:54;5.20;;;4.13;;
5054;SDS011;13829;48.990;8.346;2023-03-21T11:50:28;5.67;;;4.00;;
5054;SDS011;13829;48.990;8.346;2023-03-21T11:53:06;5.60;;;4.43;;
5054;SDS011;13829;48.990;8.346;2023-03-21T11:55:51;4.50;;;3.50;;
5054;SDS011;13829;48.990;8.346;2023-03-21T11:58:38;4.83;;;3.80;;
5054;SDS011;13829;48.990;8.346;2023-03-21T12:01:22;5.43;;;3.63;;
5054;SDS011;13829;48.990;8.346;2023-03-21T12:04:03;4.93;;;3.57;;
5054;SDS011;13829;48.990;8.346;2023-03-21T12:06:47;3.83;;;3.00;;
5054;SDS011;13829;48.990;8.346;2023-03-21T12:09:25;3.50;;;3.20;;
5054;SDS011;13829;48.990;8.346;2023-03-21T12:12:05;4.67;;;3.40;;
5054;SDS011;13829;48.990;8.346;2023-03-21T12:14:49;3.70;;;3.40;;
5054;SDS011;13829;48.990;8.346;2023-03-21T12:17:29;4.17;;;3.17;;
5054;SDS011;13829;48.990;8.346;2023-03-21T12:20:11;4.13;;;3.50;;
5054;SDS011;13829;48.990;8.346;2023-03-21T12:22:54;4.17;;;3.30;;
5054;SDS011;13829;48.990;8.346;2023-03-21T12:25:46;6.53;;;3.63;;
5054;SDS011;13829;48.990;8.346;2023-03-21T12:28:24;3.30;;;3.00;;
5054;SDS011;13829;48.990;8.346;2023-03-21T12:31:08;4.10;;;3.20;;
5054;SDS011;13829;48.990;8.346;2023-03-21T12:33:48;3.80;;;2.90;;
5054;SDS011;13829;48.990;8.346;2023-03-21T12:36:37;3.67;;;3.30;;
5054;SDS011;13829;48.990;8.346;2023-03-21T12:39:22;5.57;;;2.63;;
5054;SDS011;13829;48.990;8.346;2023-03-21T12:41:58;3.38;;;2.30;;
5054;SDS011;13829;48.990;8.346;2023-03-21T12:44:46;5.97;;;2.50;;
5054;SDS011;13829;48.990;8.346;2023-03-21T12:47:22;4.15;;;2.10;;
5054;SDS011;13829;48.990;8.346;2023-03-21T12:49:54;2.53;;;2.00;;
5054;SDS011;13829;48.990;8.346;2023-03-21T12:52:28;3.40;;;2.40;;
5054;SDS011;13829;48.990;8.346;2023-03-21T12:54:59;4.45;;;2.50;;
5054;SDS011;13829;48.990;8.346;2023-03-21T12:57:32;3.20;;;2.40;;
5054;SDS011;13829;48.990;8.346;2023-03-21T13:00:06;2.97;;;1.83;;
5054;SDS011;13829;48.990;8.346;2023-03-21T13:02:43;2.80;;;1.92;;
5054;SDS011;13829;48.990;8.346;2023-03-21T13:05:17;3.45;;;2.40;;
5054;SDS011;13829;48.990;8.346;2023-03-21T13:07:53;4.77;;;2.30;;
5054;SDS011;13829;48.990;8.346;2023-03-21T13:10:26;3.67;;;2.25;;
5054;SDS011;13829;48.990;8.346;2023-03-21T13:13:04;3.53;;;2.20;;
5054;SDS011;13829;48.990;8.346;2023-03-21T13:15:47;6.10;;;2.70;;
5054;SDS011;13829;48.990;8.346;2023-03-21T13:18:34;4.22;;;2.95;;
5054;SDS011;13829;48.990;8.346;2023-03-21T13:21:29;2.17;;;1.90;;
5054;SDS011;13829;48.990;8.346;2023-03-21T13:24:23;2.63;;;2.10;;
5054;SDS011;13829;48.990;8.346;2023-03-21T13:26:56;2.40;;;2.20;;
5054;SDS011;13829;48.990;8.346;2023-03-21T13:29:31;2.42;;;2.22;;
5054;SDS011;13829;48.990;8.346;2023-03-21T13:32:09;3.40;;;2.35;;
5054;SDS011;13829;48.990;8.346;2023-03-21T13:34:48;2.58;;;2.35;;
5054;SDS011;13829;48.990;8.346;2023-03-21T13:37:21;2.65;;;2.08;;
5054;SDS011;13829;48.990;8.346;2023-03-21T13:39:50;8.35;;;2.47;;
5054;SDS011;13829;48.990;8.346;2023-03-21T13:42:20;3.05;;;2.50;;
5054;SDS011;13829;48.990;8.346;2023-03-21T13:44:56;3.60;;;2.40;;
5054;SDS011;13829;48.990;8.346;2023-03-21T13:47:30;3.25;;;2.55;;
5054;SDS011;13829;48.990;8.346;2023-03-21T13:58:58;3.20;;;2.72;;
5054;SDS011;13829;48.990;8.346;2023-03-21T14:01:29;5.53;;;3.38;;
5054;SDS011;13829;48.990;8.346;2023-03-21T14:04:05;4.05;;;2.88;;
5054;SDS011;13829;48.990;8.346;2023-03-21T14:06:41;3.35;;;2.60;;
5054;SDS011;13829;48.990;8.346;2023-03-21T14:09:15;3.00;;;2.60;;
5054;SDS011;13829;48.990;8.346;2023-03-21T14:11:52;4.43;;;3.08;;
5054;SDS011;13829;48.990;8.346;2023-03-21T14:14:20;2.70;;;2.50;;
5054;SDS011;13829;48.990;8.346;2023-03-21T14:16:52;3.33;;;2.33;;
5054;SDS011;13829;48.990;8.346;2023-03-21T14:19:19;5.78;;;3.08;;
5054;SDS011;13829;48.990;8.346;2023-03-21T14:21:56;4.60;;;2.42;;
5054;SDS011;13829;48.990;8.346;2023-03-21T14:24:23;3.60;;;2.30;;
5054;SDS011;13829;48.990;8.346;2023-03-21T14:26:51;2.53;;;1.93;;
5054;SDS011;13829;48.990;8.346;2023-03-21T14:29:22;2.67;;;2.10;;
5054;SDS011;13829;48.990;8.346;2023-03-21T14:31:55;2.15;;;1.80;;
5054;SDS011;13829;48.990;8.346;2023-03-21T14:34:24;2.47;;;1.40;;
5054;SDS011;13829;48.990;8.346;2023-03-21T14:36:53;2.93;;;1.20;;
5054;SDS011;13829;48.990;8.346;2023-03-21T14:39:25;3.43;;;1.57;;
5054;SDS011;13829;48.990;8.346;2023-03-21T14:41:55;1.75;;;1.50;;
5054;SDS011;13829;48.990;8.346;2023-03-21T14:44:31;2.53;;;1.40;;
5054;SDS011;13829;48.990;8.346;2023-03-21T14:47:01;1.80;;;1.35;;
5054;SDS011;13829;48.990;8.346;2023-03-21T14:49:31;2.70;;;1.40;;
5054;SDS011;13829;48.990;8.346;2023-03-21T14:52:02;2.43;;;2.07;;
5054;SDS011;13829;48.990;8.346;2023-03-21T14:54:34;2.77;;;2.23;;
5054;SDS011;13829;48.990;8.346;2023-03-21T14:57:07;3.43;;;2.30;;
5054;SDS011;13829;48.990;8.346;2023-03-21T14:59:40;3.37;;;2.47;;
5054;SDS011;13829;48.990;8.346;2023-03-21T15:02:11;2.60;;;2.10;;
5054;SDS011;13829;48.990;8.346;2023-03-21T15:04:44;2.40;;;1.80;;
5054;SDS011;13829;48.990;8.346;2023-03-21T15:07:28;4.50;;;2.20;;
5054;SDS011;13829;48.990;8.346;2023-03-21T15:09:57;5.33;;;2.67;;
5054;SDS011;13829;48.990;8.346;2023-03-21T15:12:27;3.03;;;2.73;;
5054;SDS011;13829;48.990;8.346;2023-03-21T15:14:55;4.60;;;2.73;;
5054;SDS011;13829;48.990;8.346;2023-03-21T15:17:23;3.07;;;2.60;;
5054;SDS011;13829;48.990;8.346;2023-03-21T15:19:51;4.77;;;2.90;;
5054;SDS011;13829;48.990;8.346;2023-03-21T15:22:19;5.67;;;3.10;;
5054;SDS011;13829;48.990;8.346;2023-03-21T15:24:57;3.27;;;2.53;;
5054;SDS011;13829;48.990;8.346;2023-03-21T15:27:29;4.43;;;2.60;;
5054;SDS011;13829;48.990;8.346;2023-03-21T15:30:03;3.10;;;2.67;;
5054;SDS011;13829;48.990;8.346;2023-03-21T15:32:31;7.23;;;3.50;;
5054;SDS011;13829;48.990;8.346;2023-03-21T15:35:03;3.63;;;3.20;;
5054;SDS011;13829;48.990;8.346;2023-03-21T15:37:40;3.53;;;3.00;;
5054;SDS011;13829;48.990;8.346;2023-03-21T15:40:08;3.57;;;2.50;;